createdAt,value
2023-01-26T00:00:25.092Z,98781.34
2023-01-26T00:02:55.504Z,98782.38
2023-01-26T00:05:26.739Z,98777.75
2023-01-26T00:07:55.643Z,98773.91
2023-01-26T00:10:26.055Z,98766.81
2023-01-26T00:12:55.565Z,98771.25
2023-01-26T00:15:25.631Z,98767.94
2023-01-26T00:17:56.529Z,98769.81
2023-01-26T00:20:27.915Z,98773.22
2023-01-26T00:22:56.952Z,98781.84
2023-01-26T00:25:27.795Z,98775.16
2023-01-26T00:27:58.463Z,98767.66
2023-01-26T00:30:27.344Z,98766.09
2023-01-26T00:32:58.637Z,98768.59
2023-01-26T00:35:28.582Z,98772.69
2023-01-26T00:37:58.151Z,98780.31
2023-01-26T00:40:29.087Z,98769.63
2023-01-26T00:42:59.327Z,98768.06
2023-01-26T00:45:29.642Z,98785.03
2023-01-26T00:48:02.222Z,98776.38
2023-01-26T00:50:32.286Z,98763.44
2023-01-26T00:53:01.247Z,98756.84
2023-01-26T00:55:32.554Z,98766.22
2023-01-26T00:58:01.196Z,98770.13
2023-01-26T01:00:29.800Z,98767.78
2023-01-26T01:03:02.553Z,98761.59
2023-01-26T01:05:34.441Z,98770.84
2023-01-26T01:08:05.159Z,98767.56
2023-01-26T01:10:36.192Z,98763.53
2023-01-26T01:13:05.645Z,98773.00
2023-01-26T01:15:35.599Z,98774.53
2023-01-26T01:18:06.790Z,98773.81
2023-01-26T01:20:36.305Z,98768.69
2023-01-26T01:23:05.369Z,98771.47
2023-01-26T01:25:36.179Z,98777.09
2023-01-26T01:28:06.132Z,98770.44
2023-01-26T01:30:35.590Z,98762.09
2023-01-26T01:33:07.866Z,98753.34
2023-01-26T01:35:37.828Z,98758.94
2023-01-26T01:38:08.027Z,98764.69
2023-01-26T01:40:37.081Z,98766.31
2023-01-26T01:43:14.529Z,98772.06
2023-01-26T01:45:47.422Z,98766.00
2023-01-26T01:48:26.970Z,98756.66
2023-01-26T01:51:01.991Z,98764.16
2023-01-26T01:53:38.181Z,98761.69
2023-01-26T01:56:16.306Z,98766.44
2023-01-26T01:58:47.012Z,98762.91
2023-01-26T02:01:16.453Z,98758.31
2023-01-26T02:03:51.541Z,98748.03
2023-01-26T02:06:27.655Z,98750.28
2023-01-26T02:08:59.842Z,98753.06
2023-01-26T02:11:36.707Z,98744.31
2023-01-26T02:14:11.890Z,98735.50
2023-01-26T02:16:41.567Z,98739.28
2023-01-26T02:19:25.132Z,98738.25
2023-01-26T02:21:59.162Z,98738.03
2023-01-26T02:24:36.538Z,98722.94
2023-01-26T02:27:08.183Z,98729.00
2023-01-26T02:29:38.896Z,98723.13
2023-01-26T02:32:08.806Z,98723.56
2023-01-26T02:34:38.728Z,98720.50
2023-01-26T02:37:15.228Z,98731.25
2023-01-26T02:39:55.460Z,98716.16
2023-01-26T02:42:44.996Z,98709.25
2023-01-26T02:45:17.711Z,98701.16
2023-01-26T02:47:47.738Z,98692.22
2023-01-26T02:50:17.493Z,98694.97
2023-01-26T02:52:47.473Z,98695.81
2023-01-26T02:55:25.693Z,98702.19
2023-01-26T02:57:59.493Z,98685.53
2023-01-26T03:00:31.467Z,98678.66
2023-01-26T03:03:04.028Z,98688.41
2023-01-26T03:05:34.091Z,98685.75
2023-01-26T03:08:06.099Z,98678.03
2023-01-26T03:10:36.248Z,98683.88
2023-01-26T03:13:07.258Z,98681.09
2023-01-26T03:15:43.535Z,98673.19
2023-01-26T03:18:48.668Z,98666.00
2023-01-26T03:21:36.534Z,98667.41
2023-01-26T03:24:24.286Z,98662.50
2023-01-26T03:27:11.280Z,98664.13
2023-01-26T03:29:42.594Z,98668.44
2023-01-26T03:32:12.776Z,98659.94
2023-01-26T03:34:41.156Z,98665.78
2023-01-26T03:37:10.645Z,98675.13
2023-01-26T03:39:56.880Z,98676.75
2023-01-26T03:42:43.850Z,98675.00
2023-01-26T03:45:33.838Z,98667.41
2023-01-26T03:48:25.015Z,98669.03
2023-01-26T03:51:11.057Z,98668.34
2023-01-26T03:53:57.185Z,98665.78
2023-01-26T03:56:33.129Z,98664.94
2023-01-26T03:59:09.711Z,98667.22
2023-01-26T04:01:43.084Z,98661.13
2023-01-26T04:04:31.954Z,98648.25
2023-01-26T04:07:19.330Z,98651.56
2023-01-26T04:09:49.709Z,98650.66
2023-01-26T04:12:19.550Z,98654.75
2023-01-26T04:15:06.093Z,98641.16
2023-01-26T04:17:53.986Z,98645.38
2023-01-26T04:20:40.984Z,98642.94
2023-01-26T04:23:20.526Z,98634.41
2023-01-26T04:25:49.559Z,98636.34
2023-01-26T04:28:18.987Z,98628.75
2023-01-26T04:30:48.467Z,98632.03
2023-01-26T04:33:19.522Z,98628.53
2023-01-26T04:35:48.465Z,98636.56
2023-01-26T04:38:18.271Z,98630.22
2023-01-26T04:40:54.768Z,98623.44
2023-01-26T04:43:24.812Z,98615.41
2023-01-26T04:46:02.771Z,98616.84
2023-01-26T04:48:34.395Z,98614.41
2023-01-26T04:51:06.772Z,98613.38
2023-01-26T04:53:36.493Z,98617.59
2023-01-26T04:56:09.121Z,98615.63
2023-01-26T04:58:38.935Z,98617.16
2023-01-26T05:01:09.710Z,98612.94
2023-01-26T05:03:41.489Z,98604.31
2023-01-26T05:06:10.817Z,98609.44
2023-01-26T05:08:40.843Z,98608.53
2023-01-26T05:11:09.628Z,98606.13
2023-01-26T05:13:39.631Z,98603.56
2023-01-26T05:16:09.459Z,98598.34
2023-01-26T05:18:40.912Z,98601.00
2023-01-26T05:21:11.752Z,98600.06
2023-01-26T05:23:41.984Z,98603.69
2023-01-26T05:26:10.633Z,98594.47
2023-01-26T05:28:39.150Z,98602.25
2023-01-26T05:31:08.807Z,98604.75
2023-01-26T05:33:37.279Z,98611.63
2023-01-26T05:36:11.062Z,98617.06
2023-01-26T05:38:40.487Z,98620.25
2023-01-26T05:41:09.897Z,98626.31
2023-01-26T05:43:40.576Z,98625.28
2023-01-26T05:46:11.249Z,98630.63
2023-01-26T05:48:40.788Z,98632.88
2023-01-26T05:51:12.499Z,98622.59
2023-01-26T05:53:41.449Z,98631.03
2023-01-26T05:56:10.117Z,98620.53
2023-01-26T05:58:40.196Z,98624.66
2023-01-26T06:01:10.544Z,98628.13
2023-01-26T06:03:41.608Z,98621.38
2023-01-26T06:06:12.476Z,98621.06
2023-01-26T06:08:41.905Z,98622.59
2023-01-26T06:11:11.993Z,98623.44
2023-01-26T06:13:41.133Z,98624.13
2023-01-26T06:16:10.763Z,98626.81
2023-01-26T06:18:39.738Z,98632.28
2023-01-26T06:21:11.562Z,98632.78
2023-01-26T06:23:40.978Z,98629.22
2023-01-26T06:26:11.037Z,98621.38
2023-01-26T06:28:41.006Z,98628.06
2023-01-26T06:31:10.850Z,98633.94
2023-01-26T06:33:40.783Z,98639.88
2023-01-26T06:36:14.976Z,98634.84
2023-01-26T06:38:50.988Z,98634.13
2023-01-26T06:41:20.939Z,98628.28
2023-01-26T06:43:51.060Z,98639.38
2023-01-26T06:46:20.894Z,98641.63
2023-01-26T06:48:50.970Z,98638.47
2023-01-26T06:51:58.241Z,98637.09
2023-01-26T06:54:28.364Z,98642.16
2023-01-26T06:56:56.874Z,98642.97
2023-01-26T06:59:26.368Z,98639.69
2023-01-26T07:01:56.474Z,98649.47
2023-01-26T07:04:28.121Z,98650.50
2023-01-26T07:06:59.396Z,98650.91
2023-01-26T07:09:31.271Z,98648.66
2023-01-26T07:12:01.153Z,98647.72
2023-01-26T07:14:33.135Z,98650.81
2023-01-26T07:17:03.667Z,98653.56
2023-01-26T07:19:34.762Z,98649.91
2023-01-26T07:22:06.669Z,98653.28
2023-01-26T07:24:37.175Z,98660.59
2023-01-26T07:27:07.982Z,98669.91
2023-01-26T07:29:38.040Z,98674.66
2023-01-26T07:32:08.625Z,98668.28
2023-01-26T07:34:38.201Z,98672.91
2023-01-26T07:37:08.621Z,98670.13
2023-01-26T07:39:38.268Z,98680.19
2023-01-26T07:42:07.279Z,98673.22
2023-01-26T07:44:37.154Z,98679.81
2023-01-26T07:47:06.841Z,98676.63
2023-01-26T07:49:37.577Z,98681.97
2023-01-26T07:52:10.768Z,98682.88
2023-01-26T07:54:40.167Z,98683.69
2023-01-26T07:57:10.427Z,98696.00
2023-01-26T07:59:40.085Z,98688.84
2023-01-26T08:02:10.917Z,98693.75
2023-01-26T08:04:40.807Z,98688.84
2023-01-26T08:07:11.283Z,98695.50
2023-01-26T08:09:39.889Z,98692.09
2023-01-26T08:12:09.433Z,98691.06
2023-01-26T08:14:46.706Z,98691.50
2023-01-26T08:17:18.018Z,98689.13
2023-01-26T08:19:47.594Z,98690.78
2023-01-26T08:22:20.117Z,98697.88
2023-01-26T08:24:50.783Z,98693.25
2023-01-26T08:27:20.538Z,98688.75
2023-01-26T08:29:51.979Z,98695.50
2023-01-26T08:32:20.401Z,98707.34
2023-01-26T08:34:50.924Z,98697.06
2023-01-26T08:37:22.062Z,98704.16
2023-01-26T08:39:51.061Z,98703.19
2023-01-26T08:42:22.773Z,98702.28
2023-01-26T08:44:53.528Z,98710.00
2023-01-26T08:47:23.571Z,98714.22
2023-01-26T08:49:54.026Z,98712.47
2023-01-26T08:52:26.524Z,98709.06
2023-01-26T08:54:56.468Z,98709.06
2023-01-26T08:57:26.987Z,98713.09
2023-01-26T08:59:56.442Z,98712.97
2023-01-26T09:02:26.585Z,98712.97
2023-01-26T09:04:55.776Z,98710.19
2023-01-26T09:07:27.918Z,98704.25
2023-01-26T09:09:58.223Z,98703.72
2023-01-26T09:12:27.762Z,98706.31
2023-01-26T09:14:57.837Z,98710.19
2023-01-26T09:17:26.928Z,98707.53
2023-01-26T09:19:57.214Z,98704.06
2023-01-26T09:22:28.219Z,98704.75
2023-01-26T09:24:58.319Z,98704.75
2023-01-26T09:27:28.510Z,98702.41
2023-01-26T09:29:58.411Z,98699.31
2023-01-26T09:32:28.127Z,98699.09
2023-01-26T09:34:57.859Z,98702.50
2023-01-26T09:37:28.438Z,98705.69
2023-01-26T09:39:58.606Z,98702.91
2023-01-26T09:42:47.132Z,98703.31
2023-01-26T09:45:33.138Z,98705.28
2023-01-26T09:48:25.520Z,98706.31
2023-01-26T09:51:04.709Z,98703.31
2023-01-26T09:53:47.838Z,98717.00
2023-01-26T09:56:23.529Z,98715.25
2023-01-26T09:59:01.838Z,98707.75
2023-01-26T10:01:41.753Z,98717.59
2023-01-26T10:04:29.512Z,98710.50
2023-01-26T10:07:00.584Z,98705.25
2023-01-26T10:09:38.761Z,98702.59
2023-01-26T10:12:18.550Z,98704.25
2023-01-26T10:14:57.207Z,98704.56
2023-01-26T10:17:35.123Z,98706.91
2023-01-26T10:20:11.325Z,98712.88
2023-01-26T10:22:47.943Z,98710.81
2023-01-26T10:25:25.483Z,98713.47
2023-01-26T10:27:54.643Z,98710.81
2023-01-26T10:30:24.470Z,98703.63
2023-01-26T10:32:55.407Z,98704.56
2023-01-26T10:35:27.818Z,98698.06
2023-01-26T10:37:58.619Z,98690.69
2023-01-26T10:40:29.497Z,98694.38
2023-01-26T10:43:00.967Z,98692.94
2023-01-26T10:45:33.774Z,98694.78
2023-01-26T10:48:08.222Z,98698.38
2023-01-26T10:50:37.923Z,98698.28
2023-01-26T10:53:08.089Z,98693.78
2023-01-26T10:55:39.739Z,98698.91
2023-01-26T10:58:45.432Z,98701.56
2023-01-26T11:01:17.179Z,98694.19
2023-01-26T11:04:07.681Z,98681.00
2023-01-26T11:06:36.982Z,98666.31
2023-01-26T11:09:20.890Z,98654.19
2023-01-26T11:12:03.094Z,98654.47
2023-01-26T11:14:35.522Z,98646.34
2023-01-26T11:17:21.137Z,98650.34
2023-01-26T11:20:09.277Z,98644.28
2023-01-26T11:22:49.900Z,98642.41
2023-01-26T11:25:27.925Z,98652.69
2023-01-26T11:28:28.385Z,98644.16
2023-01-26T11:31:16.520Z,98643.56
2023-01-26T11:34:04.463Z,98643.34
2023-01-26T11:36:50.089Z,98642.34
2023-01-26T11:39:32.168Z,98646.13
2023-01-26T11:42:22.595Z,98641.38
2023-01-26T11:45:29.908Z,98635.94
2023-01-26T11:48:21.774Z,98627.28
2023-01-26T11:51:05.515Z,98640.03
2023-01-26T11:54:00.950Z,98631.78
2023-01-26T11:56:45.431Z,98621.28
2023-01-26T11:59:23.664Z,98623.63
2023-01-26T12:02:02.938Z,98622.47
2023-01-26T12:04:40.090Z,98623.41
2023-01-26T12:07:21.604Z,98603.56
2023-01-26T12:09:53.508Z,98607.34
2023-01-26T12:12:39.283Z,98595.06
2023-01-26T12:15:17.102Z,98599.16
2023-01-26T12:18:00.843Z,98601.53
2023-01-26T12:20:40.791Z,98598.72
2023-01-26T12:23:26.146Z,98594.41
2023-01-26T12:26:01.920Z,98586.38
2023-01-26T12:28:39.274Z,98574.19
2023-01-26T12:31:20.287Z,98575.63
2023-01-26T12:33:56.192Z,98565.56
2023-01-26T12:36:48.335Z,98573.97
2023-01-26T12:39:31.364Z,98571.06
2023-01-26T12:42:23.829Z,98561.38
2023-01-26T12:45:00.687Z,98552.50
2023-01-26T12:47:36.864Z,98551.44
2023-01-26T12:50:22.292Z,98553.69
2023-01-26T12:52:58.489Z,98552.03
2023-01-26T12:55:36.222Z,98545.97
2023-01-26T12:58:14.011Z,98549.38
2023-01-26T13:00:55.672Z,98545.50
2023-01-26T13:03:31.312Z,98543.66
2023-01-26T13:06:19.542Z,98541.53
2023-01-26T13:09:05.081Z,98539.22
2023-01-26T13:11:51.516Z,98539.91
2023-01-26T13:14:39.074Z,98533.25
2023-01-26T13:17:59.856Z,98532.78
2023-01-26T13:20:54.037Z,98537.00
2023-01-26T13:23:57.058Z,98534.28
2023-01-26T13:26:55.024Z,98537.13
2023-01-26T13:29:35.941Z,98542.63
2023-01-26T13:33:03.385Z,98538.88
2023-01-26T13:35:34.699Z,98528.72
2023-01-26T13:38:23.716Z,98529.16
2023-01-26T13:40:55.056Z,98534.31
2023-01-26T13:43:38.792Z,98534.78
2023-01-26T13:46:20.405Z,98536.41
2023-01-26T13:48:51.515Z,98536.56
2023-01-26T13:51:25.180Z,98534.78
2023-01-26T13:54:04.159Z,98534.66
2023-01-26T13:56:37.970Z,98533.38
2023-01-26T13:59:12.060Z,98543.31
2023-01-26T14:01:48.146Z,98540.63
2023-01-26T14:04:22.033Z,98545.78
2023-01-26T14:06:57.881Z,98544.38
2023-01-26T14:09:32.063Z,98551.19
2023-01-26T14:12:06.254Z,98548.38
2023-01-26T14:14:39.351Z,98557.75
2023-01-26T14:17:26.526Z,98563.81
2023-01-26T14:19:56.571Z,98570.38
2023-01-26T14:22:26.219Z,98567.31
2023-01-26T14:24:56.363Z,98570.63
2023-01-26T14:27:39.525Z,98562.06
2023-01-26T14:30:28.402Z,98569.06
2023-01-26T14:33:06.333Z,98567.31
2023-01-26T14:35:37.316Z,98570.50
2023-01-26T14:38:16.281Z,98568.72
2023-01-26T14:40:50.035Z,98571.09
2023-01-26T14:43:20.618Z,98568.16
2023-01-26T14:46:00.203Z,98569.91
2023-01-26T14:48:38.653Z,98576.47
2023-01-26T14:51:18.255Z,98572.38
2023-01-26T14:53:53.741Z,98574.03
2023-01-26T14:56:33.088Z,98576.94
2023-01-26T14:59:05.319Z,98575.06
2023-01-26T15:01:35.132Z,98569.06
2023-01-26T15:04:24.963Z,98574.59
2023-01-26T15:06:54.021Z,98575.06
2023-01-26T15:09:29.305Z,98570.72
2023-01-26T15:12:19.912Z,98569.66
2023-01-26T15:14:58.876Z,98575.44
2023-01-26T15:17:40.929Z,98566.88
2023-01-26T15:20:41.659Z,98564.16
2023-01-26T15:23:27.172Z,98566.41
2023-01-26T15:25:56.403Z,98564.50
2023-01-26T15:28:27.740Z,98555.75
2023-01-26T15:30:59.677Z,98562.41
2023-01-26T15:33:59.216Z,98554.69
2023-01-26T15:36:51.187Z,98560.78
2023-01-26T15:39:22.194Z,98565.91
2023-01-26T15:42:15.105Z,98575.19
2023-01-26T15:44:44.025Z,98569.47
2023-01-26T15:47:16.125Z,98565.34
2023-01-26T15:49:45.827Z,98560.91
2023-01-26T15:52:18.401Z,98567.81
2023-01-26T15:54:47.777Z,98573.78
2023-01-26T15:57:17.184Z,98578.94
2023-01-26T15:59:47.023Z,98579.97
2023-01-26T16:02:20.310Z,98585.03
2023-01-26T16:04:50.142Z,98582.34
2023-01-26T16:07:20.540Z,98584.91
2023-01-26T16:09:51.639Z,98582.09
2023-01-26T16:12:35.975Z,98577.88
2023-01-26T16:15:24.631Z,98580.94
2023-01-26T16:17:55.552Z,98575.88
2023-01-26T16:20:24.620Z,98578.59
2023-01-26T16:22:55.385Z,98573.69
2023-01-26T16:25:28.745Z,98573.88
2023-01-26T16:27:59.835Z,98582.44
2023-01-26T16:30:30.140Z,98580.56
2023-01-26T16:33:01.036Z,98579.53
2023-01-26T16:35:31.347Z,98577.53
2023-01-26T16:38:00.647Z,98586.56
2023-01-26T16:40:30.641Z,98582.31
2023-01-26T16:43:00.930Z,98582.31
2023-01-26T16:45:30.586Z,98579.84
2023-01-26T16:48:02.543Z,98580.00
2023-01-26T16:50:32.045Z,98580.81
2023-01-26T16:53:08.637Z,98583.50
2023-01-26T16:55:37.141Z,98583.81
2023-01-26T16:58:06.220Z,98582.81
2023-01-26T17:00:37.125Z,98581.97
2023-01-26T17:03:10.695Z,98578.69
2023-01-26T17:05:41.002Z,98575.50
2023-01-26T17:08:11.534Z,98578.09
2023-01-26T17:10:55.517Z,98582.06
2023-01-26T17:13:29.314Z,98583.25
2023-01-26T17:16:00.309Z,98585.56
2023-01-26T17:18:33.464Z,98587.94
2023-01-26T17:21:05.118Z,98580.81
2023-01-26T17:23:35.256Z,98581.97
2023-01-26T17:26:04.505Z,98580.91
2023-01-26T17:28:33.487Z,98573.09
2023-01-26T17:31:02.457Z,98568.97
2023-01-26T17:33:33.847Z,98570.63
2023-01-26T17:36:04.026Z,98575.06
2023-01-26T17:38:32.935Z,98570.63
2023-01-26T17:41:02.937Z,98571.66
2023-01-26T17:43:32.700Z,98567.56
2023-01-26T17:46:06.932Z,98571.31
2023-01-26T17:48:39.424Z,98572.59
2023-01-26T17:51:10.938Z,98579.25
2023-01-26T17:53:40.620Z,98571.44
2023-01-26T17:56:12.486Z,98576.44
2023-01-26T17:58:41.666Z,98576.34
2023-01-26T18:01:12.498Z,98583.25
2023-01-26T18:03:45.141Z,98579.75
2023-01-26T18:06:14.681Z,98581.41
2023-01-26T18:08:44.100Z,98571.09
2023-01-26T18:11:16.822Z,98582.09
2023-01-26T18:13:46.848Z,98591.72
2023-01-26T18:16:20.407Z,98589.22
2023-01-26T18:18:55.633Z,98587.47
2023-01-26T18:21:28.101Z,98585.59
2023-01-26T18:24:00.624Z,98588.91
2023-01-26T18:26:34.673Z,98582.78
2023-01-26T18:29:05.361Z,98590.50
2023-01-26T18:31:41.524Z,98594.75
2023-01-26T18:34:14.179Z,98591.34
2023-01-26T18:36:43.334Z,98591.22
2023-01-26T18:39:17.403Z,98587.84
2023-01-26T18:41:46.472Z,98584.19
2023-01-26T18:44:15.964Z,98592.06
2023-01-26T18:46:44.978Z,98589.34
2023-01-26T18:49:15.286Z,98591.91
2023-01-26T18:51:48.021Z,98588.28
2023-01-26T18:54:18.463Z,98583.25
2023-01-26T18:56:48.595Z,98592.50
2023-01-26T18:59:18.860Z,98593.34
2023-01-26T19:01:48.506Z,98590.53
2023-01-26T19:04:19.213Z,98593.00
2023-01-26T19:06:49.212Z,98586.88
2023-01-26T19:09:18.241Z,98584.44
2023-01-26T19:11:47.840Z,98589.47
2023-01-26T19:14:17.908Z,98591.94
2023-01-26T19:16:49.596Z,98594.50
2023-01-26T19:19:20.227Z,98594.50
2023-01-26T19:21:49.254Z,98596.03
2023-01-26T19:24:19.038Z,98589.13
2023-01-26T19:26:48.031Z,98596.03
2023-01-26T19:29:18.821Z,98591.00
2023-01-26T19:31:48.871Z,98596.03
2023-01-26T19:34:19.684Z,98593.34
2023-01-26T19:36:49.717Z,98593.22
2023-01-26T19:39:19.661Z,98584.56
2023-01-26T19:41:48.094Z,98588.88
2023-01-26T19:44:18.652Z,98590.53
2023-01-26T19:46:50.821Z,98590.44
2023-01-26T19:49:21.503Z,98580.91
2023-01-26T19:51:50.417Z,98584.44
2023-01-26T19:54:20.255Z,98581.88
2023-01-26T19:56:52.067Z,98586.06
2023-01-26T19:59:22.536Z,98580.81
2023-01-26T20:01:52.051Z,98584.91
2023-01-26T20:04:22.600Z,98580.56
2023-01-26T20:06:51.159Z,98577.16
2023-01-26T20:09:20.148Z,98581.25
2023-01-26T20:11:53.383Z,98580.47
2023-01-26T20:14:22.446Z,98579.50
2023-01-26T20:16:51.481Z,98577.50
2023-01-26T20:19:22.773Z,98576.69
2023-01-26T20:21:51.778Z,98570.72
2023-01-26T20:24:21.129Z,98577.66
2023-01-26T20:26:50.508Z,98580.91
2023-01-26T20:29:22.228Z,98584.22
2023-01-26T20:31:52.360Z,98578.22
2023-01-26T20:34:23.414Z,98578.09
2023-01-26T20:36:54.629Z,98575.50
2023-01-26T20:39:25.827Z,98572.00
2023-01-26T20:41:56.034Z,98568.50
2023-01-26T20:44:25.587Z,98564.97
2023-01-26T20:46:54.707Z,98567.53
2023-01-26T20:49:24.517Z,98563.22
2023-01-26T20:51:54.534Z,98564.97
2023-01-26T20:54:23.962Z,98567.19
2023-01-26T20:56:53.613Z,98565.53
2023-01-26T20:59:23.120Z,98556.88
2023-01-26T21:01:52.313Z,98563.69
2023-01-26T21:04:21.386Z,98553.22
2023-01-26T21:06:54.885Z,98554.88
2023-01-26T21:09:23.451Z,98552.31
2023-01-26T21:11:53.204Z,98549.63
2023-01-26T21:14:21.633Z,98550.41
2023-01-26T21:16:51.246Z,98548.53
2023-01-26T21:19:21.902Z,98547.03
2023-01-26T21:21:51.721Z,98540.22
2023-01-26T21:24:21.733Z,98540.81
2023-01-26T21:26:52.175Z,98532.25
2023-01-26T21:29:21.703Z,98536.34
2023-01-26T21:31:52.759Z,98530.25
2023-01-26T21:34:22.746Z,98538.00
2023-01-26T21:36:54.425Z,98531.19
2023-01-26T21:39:26.253Z,98527.69
2023-01-26T21:41:59.595Z,98541.25
2023-01-26T21:44:30.843Z,98533.66
2023-01-26T21:47:03.603Z,98532.72
2023-01-26T21:49:32.462Z,98537.75
2023-01-26T21:52:19.720Z,98522.28
2023-01-26T21:54:49.715Z,98529.19
2023-01-26T21:57:35.625Z,98523.19
2023-01-26T22:00:06.810Z,98517.13
2023-01-26T22:02:36.834Z,98521.34
2023-01-26T22:05:09.392Z,98510.88
2023-01-26T22:07:40.112Z,98518.50
2023-01-26T22:10:14.857Z,98523.66
2023-01-26T22:12:44.680Z,98526.16
2023-01-26T22:15:15.039Z,98521.78
2023-01-26T22:17:45.015Z,98519.09
2023-01-26T22:20:15.019Z,98526.81
2023-01-26T22:22:44.972Z,98517.34
2023-01-26T22:25:15.240Z,98517.19
2023-01-26T22:27:45.494Z,98516.50
2023-01-26T22:30:17.008Z,98512.19
2023-01-26T22:32:47.185Z,98508.66
2023-01-26T22:35:17.829Z,98513.94
2023-01-26T22:37:48.230Z,98508.66
2023-01-26T22:40:18.392Z,98506.09
2023-01-26T22:42:47.310Z,98502.53
2023-01-26T22:45:17.482Z,98500.78
2023-01-26T22:47:47.115Z,98500.69
2023-01-26T22:50:16.970Z,98501.50
2023-01-26T22:52:47.947Z,98495.53
2023-01-26T22:55:18.520Z,98490.38
2023-01-26T22:57:48.723Z,98502.19
2023-01-26T23:00:19.011Z,98505.59
2023-01-26T23:02:48.022Z,98505.59
2023-01-26T23:05:17.092Z,98505.59
2023-01-26T23:07:49.136Z,98505.59
2023-01-26T23:10:19.664Z,98495.28
2023-01-26T23:12:50.188Z,98492.69
2023-01-26T23:15:19.306Z,98491.75
2023-01-26T23:17:51.494Z,98495.03
2023-01-26T23:20:22.085Z,98490.78
2023-01-26T23:22:52.956Z,98489.88
2023-01-26T23:25:39.848Z,98486.34
2023-01-26T23:28:09.843Z,98481.19
2023-01-26T23:30:39.344Z,98480.38
2023-01-26T23:33:09.329Z,98483.78
2023-01-26T23:35:38.743Z,98474.38
2023-01-26T23:38:10.408Z,98475.78
2023-01-26T23:40:40.822Z,98474.13
2023-01-26T23:43:16.908Z,98474.97
2023-01-26T23:45:49.156Z,98479.97
2023-01-26T23:48:19.289Z,98470.63
2023-01-26T23:50:48.937Z,98474.81
2023-01-26T23:53:20.250Z,98470.63
2023-01-26T23:55:50.635Z,98476.59
2023-01-26T23:58:20.007Z,98472.94
